Time;durP1;ratioP1;P1;durP2;ratioP2;P2;SDS_P1;SDS_P2;PMS_P1;PMS_P2;Temp;Humidity;BMP_temperature;BMP_pressure;BME280_temperature;BME280_humidity;BME280_pressure;Samples;Min_cycle;Max_cycle;Signal;HPM_P1;HPM_P2
2023/09/02 00:00:38;;;;;;;16.27;14.68;;;;;;;-148.88;100.00;-17125.47;5018111;28;20116;-75
2023/09/02 00:03:04;;;;;;;15.43;13.82;;;;;;;-148.88;100.00;-17125.47;5018096;28;20032;-75
2023/09/02 00:05:29;;;;;;;14.82;13.32;;;;;;;-148.88;100.00;-17125.47;5019326;28;20026;-75
2023/09/02 00:07:54;;;;;;;13.25;11.95;;;;;;;-148.88;100.00;-17125.47;5019241;28;20081;-75
2023/09/02 00:10:20;;;;;;;14.30;12.77;;;;;;;-148.88;100.00;-17125.47;5018078;28;20056;-75
2023/09/02 00:12:45;;;;;;;14.25;12.40;;;;;;;-148.88;100.00;-17125.47;5019359;28;20052;-75
2023/09/02 00:15:11;;;;;;;14.20;12.70;;;;;;;-148.88;100.00;-17125.47;5019291;28;20033;-75
2023/09/02 00:17:36;;;;;;;14.25;12.85;;;;;;;-148.88;100.00;-17125.47;5019235;28;20026;-75
2023/09/02 00:20:05;;;;;;;17.02;13.32;;;;;;;-148.88;100.00;-17125.47;5017944;28;20053;-75
2023/09/02 00:22:32;;;;;;;15.57;13.38;;;;;;;-148.88;100.00;-17125.47;5017882;28;20021;-75
2023/09/02 00:24:58;;;;;;;15.65;14.05;;;;;;;-148.88;100.00;-17125.47;5017912;28;20021;-76
2023/09/02 00:27:23;;;;;;;17.67;15.15;;;;;;;-148.88;100.00;-17125.47;5019347;28;20471;-75
2023/09/02 00:29:48;;;;;;;19.40;16.05;;;;;;;-148.88;100.00;-17125.47;5019155;28;20469;-75
2023/09/02 00:32:15;;;;;;;18.67;16.73;;;;;;;-148.88;100.00;-17125.47;5017801;28;20524;-75
2023/09/02 00:34:40;;;;;;;18.70;16.15;;;;;;;-148.88;100.00;-17125.47;5017752;28;20057;-75
2023/09/02 00:37:06;;;;;;;17.55;15.68;;;;;;;-148.88;100.00;-17125.47;5018942;28;20500;-75
2023/09/02 00:39:31;;;;;;;17.60;15.45;;;;;;;-148.88;100.00;-17125.47;5019103;28;20076;-76
2023/09/02 00:41:59;;;;;;;16.33;14.70;;;;;;;-148.88;100.00;-17125.47;5019038;28;20030;-75
2023/09/02 00:44:24;;;;;;;12.95;11.65;;;;;;;-148.88;100.00;-17125.47;5017751;28;20552;-76
2023/09/02 00:46:51;;;;;;;10.85;9.85;;;;;;;-148.88;100.00;-17125.47;5015416;28;20057;-75
2023/09/02 00:49:17;;;;;;;10.20;9.20;;;;;;;-148.88;100.00;-17125.47;5015723;28;20077;-75
2023/09/02 00:51:42;;;;;;;8.82;8.00;;;;;;;-148.88;100.00;-17125.47;5015869;28;20026;-75
2023/09/02 00:54:08;;;;;;;9.20;8.35;;;;;;;-148.88;100.00;-17125.47;5015822;28;20045;-75
2023/09/02 00:56:37;;;;;;;8.50;7.70;;;;;;;-148.88;100.00;-17125.47;5015764;28;20039;-75
2023/09/02 00:59:04;;;;;;;10.00;8.98;;;;;;;-148.88;100.00;-17125.47;5015892;28;20022;-75
2023/09/02 01:01:32;;;;;;;9.95;9.00;;;;;;;-148.88;100.00;-17125.47;5014387;28;20022;-75
2023/09/02 01:04:01;;;;;;;9.38;8.35;;;;;;;-148.88;100.00;-17125.47;5015634;28;20025;-75
2023/09/02 01:06:27;;;;;;;9.55;8.65;;;;;;;-148.88;100.00;-17125.47;5015529;28;20061;-76
2023/09/02 01:08:53;;;;;;;9.90;9.00;;;;;;;-148.88;100.00;-17125.47;5015605;28;20365;-75
2023/09/02 01:11:19;;;;;;;10.75;9.75;;;;;;;-148.88;100.00;-17125.47;5015455;28;20058;-76
2023/09/02 01:13:44;;;;;;;10.65;9.75;;;;;;;-148.88;100.00;-17125.47;5015482;28;20384;-75
2023/09/02 01:16:09;;;;;;;12.10;10.90;;;;;;;-148.88;100.00;-17125.47;5015433;28;20148;-75
2023/09/02 01:18:36;;;;;;;11.70;10.60;;;;;;;-148.88;100.00;-17125.47;5015586;28;20032;-75
2023/09/02 01:21:23;;;;;;;12.52;11.32;;;;;;;-148.88;100.00;-17125.47;5014039;28;20026;-76
2023/09/02 01:24:37;;;;;;;11.75;10.65;;;;;;;-148.88;100.00;-17125.47;5013935;28;20121;-76
2023/09/02 01:27:31;;;;;;;13.70;12.30;;;;;;;-148.88;100.00;-17125.47;4936157;29;20050;-75
2023/09/02 01:30:04;;;;;;;13.15;11.90;;;;;;;-148.88;100.00;-17125.47;5013733;28;20026;-75
2023/09/02 01:32:37;;;;;;;14.93;13.43;;;;;;;-148.88;100.00;-17125.47;5013738;28;20120;-75
2023/09/02 01:35:07;;;;;;;15.90;14.40;;;;;;;-148.88;100.00;-17125.47;5013868;28;20264;-75
2023/09/02 01:37:34;;;;;;;18.25;16.05;;;;;;;-148.88;100.00;-17125.47;5015003;28;20033;-75
2023/09/02 01:40:04;;;;;;;18.23;16.42;;;;;;;-148.88;100.00;-17125.47;5015091;28;20480;-75
2023/09/02 01:42:31;;;;;;;17.77;16.00;;;;;;;-148.88;100.00;-17125.47;5014851;28;20022;-75
2023/09/02 01:44:57;;;;;;;18.38;16.33;;;;;;;-148.88;100.00;-17125.47;5014820;28;20075;-75
2023/09/02 01:47:23;;;;;;;23.05;19.63;;;;;;;-148.88;100.00;-17125.47;5013470;28;20109;-75
2023/09/02 01:49:49;;;;;;;20.23;18.02;;;;;;;-148.88;100.00;-17125.47;5014662;28;20172;-76
2023/09/02 01:52:15;;;;;;;23.05;20.55;;;;;;;-148.88;100.00;-17125.47;5014681;28;20029;-75
2023/09/02 01:54:42;;;;;;;21.85;19.55;;;;;;;-148.88;100.00;-17125.47;5014617;28;20030;-75
2023/09/02 01:57:07;;;;;;;22.50;20.10;;;;;;;-148.88;100.00;-17125.47;5014511;28;20065;-75
2023/09/02 01:59:33;;;;;;;25.13;21.90;;;;;;;-148.88;100.00;-17125.47;5014549;28;20503;-75
2023/09/02 02:02:00;;;;;;;25.17;22.48;;;;;;;-148.88;100.00;-17125.47;5014550;28;20036;-76
2023/09/02 02:04:35;;;;;;;23.35;20.20;;;;;;;-148.88;100.00;-17125.47;5014443;28;20500;-75
2023/09/02 02:07:05;;;;;;;18.38;16.48;;;;;;;-148.88;100.00;-17125.47;5014353;28;20022;-75
2023/09/02 02:09:40;;;;;;;20.38;18.30;;;;;;;-148.88;100.00;-17125.47;5014321;28;20389;-75
2023/09/02 02:12:07;;;;;;;25.50;22.17;;;;;;;-148.88;100.00;-17125.47;5014219;28;20504;-75
2023/09/02 02:14:33;;;;;;;17.20;15.40;;;;;;;-148.88;100.00;-17125.47;5012439;28;20123;-75
2023/09/02 02:16:58;;;;;;;16.15;14.52;;;;;;;-148.88;100.00;-17125.47;5013663;28;20508;-76
2023/09/02 02:19:24;;;;;;;15.50;12.82;;;;;;;-148.88;100.00;-17125.47;5013562;28;20034;-75
2023/09/02 02:21:50;;;;;;;15.20;13.75;;;;;;;-148.88;100.00;-17125.47;5013915;28;20026;-76
2023/09/02 02:24:15;;;;;;;13.07;11.70;;;;;;;-148.88;100.00;-17125.47;5013735;28;20076;-75
2023/09/02 02:26:40;;;;;;;14.43;12.95;;;;;;;-148.88;100.00;-17125.47;5013620;28;20397;-75
2023/09/02 02:29:06;;;;;;;16.05;13.32;;;;;;;-148.88;100.00;-17125.47;5013347;28;20021;-75
2023/09/02 02:31:33;;;;;;;18.17;16.27;;;;;;;-148.88;100.00;-17125.47;5013340;28;20036;-75
2023/09/02 02:33:58;;;;;;;16.98;15.25;;;;;;;-148.88;100.00;-17125.47;5013472;28;20053;-75
2023/09/02 02:36:24;;;;;;;14.95;13.45;;;;;;;-148.88;100.00;-17125.47;5013461;28;20104;-75
2023/09/02 02:38:49;;;;;;;12.68;11.48;;;;;;;-148.88;100.00;-17125.47;5013276;28;20499;-75
2023/09/02 02:41:15;;;;;;;13.45;11.93;;;;;;;-148.88;100.00;-17125.47;5011980;28;20025;-75
2023/09/02 02:43:40;;;;;;;12.60;11.30;;;;;;;-148.88;100.00;-17125.47;5013490;28;20026;-75
2023/09/02 02:46:05;;;;;;;13.27;11.70;;;;;;;-148.88;100.00;-17125.47;5011849;28;20040;-75
2023/09/02 02:48:32;;;;;;;12.32;11.13;;;;;;;-148.88;100.00;-17125.47;5013072;28;20022;-75
2023/09/02 02:50:58;;;;;;;13.60;12.20;;;;;;;-148.88;100.00;-17125.47;5013192;28;20037;-75
2023/09/02 02:53:23;;;;;;;13.90;12.60;;;;;;;-148.88;100.00;-17125.47;5013333;28;20029;-76
2023/09/02 02:55:49;;;;;;;14.15;12.65;;;;;;;-148.88;100.00;-17125.47;5011679;28;20032;-75
2023/09/02 02:58:17;;;;;;;15.43;13.93;;;;;;;-148.88;100.00;-17125.47;5012954;28;20026;-76
2023/09/02 03:00:49;;;;;;;17.00;15.20;;;;;;;-148.88;100.00;-17125.47;5012988;28;20028;-76
2023/09/02 03:03:15;;;;;;;19.92;17.88;;;;;;;-148.88;100.00;-17125.47;5011633;28;20030;-76
2023/09/02 03:05:42;;;;;;;20.77;16.45;;;;;;;-148.88;100.00;-17125.47;5011592;28;20034;-75
2023/09/02 03:08:08;;;;;;;21.27;18.75;;;;;;;-148.88;100.00;-17125.47;5012678;28;20396;-76
2023/09/02 03:10:35;;;;;;;20.08;17.92;;;;;;;-148.88;100.00;-17125.47;5010935;28;20057;-75
2023/09/02 03:13:04;;;;;;;23.10;20.60;;;;;;;-148.88;100.00;-17125.47;5011500;28;20022;-76
2023/09/02 03:15:30;;;;;;;26.90;22.33;;;;;;;-148.88;100.00;-17125.47;5011500;28;20029;-76
2023/09/02 03:17:56;;;;;;;28.77;23.75;;;;;;;-148.88;100.00;-17125.47;5012672;28;20030;-75
2023/09/02 03:20:21;;;;;;;30.17;25.58;;;;;;;-148.88;100.00;-17125.47;5011392;28;20071;-75
2023/09/02 03:22:46;;;;;;;32.08;26.15;;;;;;;-148.88;100.00;-17125.47;5012952;28;20029;-75
2023/09/02 03:25:12;;;;;;;30.50;26.50;;;;;;;-148.88;100.00;-17125.47;5011260;28;20393;-75
2023/09/02 03:27:38;;;;;;;31.02;26.00;;;;;;;-148.88;100.00;-17125.47;5012543;28;20022;-75
2023/09/02 03:30:05;;;;;;;30.20;24.60;;;;;;;-148.88;100.00;-17125.47;5012536;28;20030;-75
2023/09/02 03:32:31;;;;;;;28.48;24.77;;;;;;;-148.88;100.00;-17125.47;5012537;28;20547;-75
2023/09/02 03:34:56;;;;;;;24.95;22.10;;;;;;;-148.88;100.00;-17125.47;5012654;28;20022;-75
2023/09/02 03:37:22;;;;;;;22.92;20.52;;;;;;;-148.88;100.00;-17125.47;5012564;28;20022;-75
2023/09/02 03:39:47;;;;;;;21.00;17.98;;;;;;;-148.88;100.00;-17125.47;5012811;28;20083;-75
2023/09/02 03:42:12;;;;;;;21.30;18.23;;;;;;;-148.88;100.00;-17125.47;5012631;28;20026;-75
2023/09/02 03:44:38;;;;;;;21.05;18.00;;;;;;;-148.88;100.00;-17125.47;5011284;28;20022;-75
2023/09/02 03:47:03;;;;;;;18.83;15.85;;;;;;;-148.88;100.00;-17125.47;5011126;28;20508;-75
2023/09/02 03:49:29;;;;;;;20.63;17.85;;;;;;;-148.88;100.00;-17125.47;5012400;28;20030;-75
2023/09/02 03:51:54;;;;;;;20.45;17.90;;;;;;;-148.88;100.00;-17125.47;5012618;28;20058;-75
2023/09/02 03:54:20;;;;;;;19.65;17.42;;;;;;;-148.88;100.00;-17125.47;5011110;28;20058;-75
2023/09/02 03:56:45;;;;;;;21.40;17.52;;;;;;;-148.88;100.00;-17125.47;5012407;28;20037;-75
2023/09/02 03:59:11;;;;;;;21.67;18.08;;;;;;;-148.88;100.00;-17125.47;5012296;28;20093;-75
2023/09/02 04:01:36;;;;;;;20.15;17.10;;;;;;;-148.88;100.00;-17125.47;5011019;28;20391;-76
2023/09/02 04:04:01;;;;;;;22.02;18.15;;;;;;;-148.88;100.00;-17125.47;5011020;28;20136;-76
2023/09/02 04:06:27;;;;;;;20.95;17.08;;;;;;;-148.88;100.00;-17125.47;5012252;28;20477;-76
2023/09/02 04:08:52;;;;;;;14.05;12.30;;;;;;;-148.88;100.00;-17125.47;5012185;28;20022;-75
2023/09/02 04:11:18;;;;;;;15.32;12.02;;;;;;;-148.88;100.00;-17125.47;5010921;28;20021;-76
2023/09/02 04:13:43;;;;;;;14.82;12.32;;;;;;;-148.88;100.00;-17125.47;5012455;28;20092;-76
2023/09/02 04:16:10;;;;;;;13.70;12.30;;;;;;;-148.88;100.00;-17125.47;5010895;28;20029;-76
2023/09/02 04:18:36;;;;;;;15.55;13.25;;;;;;;-148.88;100.00;-17125.47;5010789;28;20028;-75
2023/09/02 04:21:03;;;;;;;19.35;14.27;;;;;;;-148.88;100.00;-17125.47;5014070;28;20480;-77
2023/09/02 04:23:29;;;;;;;18.98;13.93;;;;;;;-148.88;100.00;-17125.47;5016083;28;20053;-77
2023/09/02 04:25:57;;;;;;;16.90;13.77;;;;;;;-148.88;100.00;-17125.47;5014573;28;20103;-77
2023/09/02 04:28:22;;;;;;;16.25;13.73;;;;;;;-148.88;100.00;-17125.47;5015732;28;20033;-76
2023/09/02 04:30:48;;;;;;;16.27;14.00;;;;;;;-148.88;100.00;-17125.47;5015877;28;20376;-76
2023/09/02 04:33:14;;;;;;;14.98;12.98;;;;;;;-148.88;100.00;-17125.47;5014398;28;20120;-75
2023/09/02 04:35:42;;;;;;;16.15;13.52;;;;;;;-148.88;100.00;-17125.47;5015712;28;20026;-74
2023/09/02 04:38:07;;;;;;;14.18;12.18;;;;;;;-148.88;100.00;-17125.47;5014899;28;20392;-74
2023/09/02 04:40:37;;;;;;;14.52;12.10;;;;;;;-148.88;100.00;-17125.47;5015656;28;20475;-74
2023/09/02 04:43:03;;;;;;;15.98;13.07;;;;;;;-148.88;100.00;-17125.47;5014289;28;20097;-74
2023/09/02 04:45:34;;;;;;;19.60;14.27;;;;;;;-148.88;100.00;-17125.47;5015481;28;20036;-74
2023/09/02 04:48:01;;;;;;;15.73;13.43;;;;;;;-148.88;100.00;-17125.47;5013987;28;20037;-74
2023/09/02 04:50:27;;;;;;;16.83;13.13;;;;;;;-148.88;100.00;-17125.47;5015348;28;20036;-75
2023/09/02 04:52:52;;;;;;;17.02;13.50;;;;;;;-148.88;100.00;-17125.47;5015297;28;20053;-74
2023/09/02 04:55:19;;;;;;;17.40;13.90;;;;;;;-148.88;100.00;-17125.47;5015350;28;20060;-75
2023/09/02 04:57:46;;;;;;;19.15;13.90;;;;;;;-148.88;100.00;-17125.47;5013886;28;20112;-74
2023/09/02 05:00:12;;;;;;;19.80;13.50;;;;;;;-148.88;100.00;-17125.47;5015349;28;20022;-74
2023/09/02 05:02:38;;;;;;;20.45;13.75;;;;;;;-148.88;100.00;-17125.47;5015384;28;20030;-75
2023/09/02 05:05:04;;;;;;;20.80;14.45;;;;;;;-148.88;100.00;-17125.47;5013877;28;20110;-75
2023/09/02 05:07:29;;;;;;;19.65;13.48;;;;;;;-148.88;100.00;-17125.47;5015084;28;20022;-76
2023/09/02 05:09:55;;;;;;;21.42;13.90;;;;;;;-148.88;100.00;-17125.47;5015154;28;20088;-76
2023/09/02 05:12:20;;;;;;;21.33;14.25;;;;;;;-148.88;100.00;-17125.47;5014872;28;20053;-77
2023/09/02 05:14:46;;;;;;;20.52;13.85;;;;;;;-148.88;100.00;-17125.47;5014802;28;20033;-77
2023/09/02 05:17:11;;;;;;;20.00;13.68;;;;;;;-148.88;100.00;-17125.47;5014850;28;20032;-77
2023/09/02 05:19:39;;;;;;;20.63;13.32;;;;;;;-148.88;100.00;-17125.47;5014744;28;20441;-77
2023/09/02 05:22:05;;;;;;;18.52;13.07;;;;;;;-148.88;100.00;-17125.47;5014746;28;20404;-77
2023/09/02 05:24:32;;;;;;;20.77;13.48;;;;;;;-148.88;100.00;-17125.47;5013603;28;20481;-77
2023/09/02 05:26:57;;;;;;;21.85;13.68;;;;;;;-148.88;100.00;-17125.47;5014246;28;20531;-77
2023/09/02 05:29:22;;;;;;;17.67;13.13;;;;;;;-148.88;100.00;-17125.47;5015387;28;20069;-77
2023/09/02 05:31:48;;;;;;;21.08;13.95;;;;;;;-148.88;100.00;-17125.47;5013330;28;20037;-77
2023/09/02 05:34:13;;;;;;;20.10;13.52;;;;;;;-148.88;100.00;-17125.47;5015369;28;20100;-77
2023/09/02 05:36:39;;;;;;;18.67;12.93;;;;;;;-148.88;100.00;-17125.47;5014838;28;20540;-77
2023/09/02 05:39:05;;;;;;;26.80;13.82;;;;;;;-148.88;100.00;-17125.47;5014689;28;20049;-77
2023/09/02 05:41:30;;;;;;;20.33;14.05;;;;;;;-148.88;100.00;-17125.47;5013324;28;20037;-77
2023/09/02 05:43:56;;;;;;;18.73;13.02;;;;;;;-148.88;100.00;-17125.47;5013580;28;20022;-77
2023/09/02 05:46:21;;;;;;;23.40;14.23;;;;;;;-148.88;100.00;-17125.47;5014850;28;20393;-77
2023/09/02 05:48:47;;;;;;;20.08;13.35;;;;;;;-148.88;100.00;-17125.47;5013387;28;20113;-77
2023/09/02 05:51:12;;;;;;;23.20;14.35;;;;;;;-148.88;100.00;-17125.47;5013904;28;20026;-77
2023/09/02 05:53:38;;;;;;;19.63;14.45;;;;;;;-148.88;100.00;-17125.47;5015343;28;20389;-77
2023/09/02 05:56:03;;;;;;;24.92;14.63;;;;;;;-148.88;100.00;-17125.47;5014851;28;20022;-77
2023/09/02 05:58:29;;;;;;;21.05;13.75;;;;;;;-148.88;100.00;-17125.47;5014201;28;20021;-77
2023/09/02 06:00:54;;;;;;;22.58;14.85;;;;;;;-148.88;100.00;-17125.47;5013363;28;20021;-77
2023/09/02 06:03:20;;;;;;;29.00;15.65;;;;;;;-148.88;100.00;-17125.47;5014439;28;20034;-77
2023/09/02 06:05:45;;;;;;;23.98;14.98;;;;;;;-148.88;100.00;-17125.47;5014345;28;20087;-77
2023/09/02 06:08:11;;;;;;;25.45;14.88;;;;;;;-148.88;100.00;-17125.47;5014268;28;20056;-77
2023/09/02 06:10:37;;;;;;;26.70;14.98;;;;;;;-148.88;100.00;-17125.47;5014591;28;20026;-77
2023/09/02 06:13:03;;;;;;;23.45;15.18;;;;;;;-148.88;100.00;-17125.47;5014517;28;20060;-77
2023/09/02 06:15:28;;;;;;;26.15;15.27;;;;;;;-148.88;100.00;-17125.47;5014424;28;20053;-77
2023/09/02 06:17:53;;;;;;;31.88;16.45;;;;;;;-148.88;100.00;-17125.47;5014492;28;20033;-77
2023/09/02 06:20:20;;;;;;;24.77;15.50;;;;;;;-148.88;100.00;-17125.47;5013413;28;20064;-77
2023/09/02 06:22:46;;;;;;;28.38;15.70;;;;;;;-148.88;100.00;-17125.47;5014597;28;20511;-77
2023/09/02 06:25:12;;;;;;;29.83;16.83;;;;;;;-148.88;100.00;-17125.47;5013208;28;20030;-77
2023/09/02 06:27:37;;;;;;;31.85;17.75;;;;;;;-148.88;100.00;-17125.47;5014586;28;20025;-78
2023/09/02 06:30:04;;;;;;;32.55;16.42;;;;;;;-148.88;100.00;-17125.47;5014811;28;20034;-77
2023/09/02 06:32:30;;;;;;;29.90;16.70;;;;;;;-148.88;100.00;-17125.47;5014042;28;20029;-77
2023/09/02 06:34:55;;;;;;;30.92;17.45;;;;;;;-148.88;100.00;-17125.47;5014354;28;20523;-77
2023/09/02 06:37:21;;;;;;;28.88;15.95;;;;;;;-148.88;100.00;-17125.47;5014208;28;20109;-77
2023/09/02 06:39:52;;;;;;;29.20;16.33;;;;;;;-148.88;100.00;-17125.47;5012580;28;20022;-77
2023/09/02 06:42:17;;;;;;;28.98;16.73;;;;;;;-148.88;100.00;-17125.47;5014130;28;20531;-77
2023/09/02 06:44:46;;;;;;;28.52;17.20;;;;;;;-148.88;100.00;-17125.47;5012972;28;20030;-77
2023/09/02 06:47:13;;;;;;;26.05;16.52;;;;;;;-148.88;100.00;-17125.47;5012351;28;20382;-77
2023/09/02 06:49:38;;;;;;;29.52;17.38;;;;;;;-148.88;100.00;-17125.47;5012286;28;20504;-77
2023/09/02 06:52:04;;;;;;;32.42;18.42;;;;;;;-148.88;100.00;-17125.47;5012468;28;20047;-77
2023/09/02 06:54:29;;;;;;;31.08;17.60;;;;;;;-148.88;100.00;-17125.47;5013931;28;20087;-77
2023/09/02 06:56:55;;;;;;;39.72;19.42;;;;;;;-148.88;100.00;-17125.47;5014081;28;20195;-77
2023/09/02 06:59:20;;;;;;;33.67;19.85;;;;;;;-148.88;100.00;-17125.47;5013098;28;20052;-77
2023/09/02 07:01:46;;;;;;;34.08;18.48;;;;;;;-148.88;100.00;-17125.47;5012121;28;20037;-76
2023/09/02 07:04:11;;;;;;;40.40;20.63;;;;;;;-148.88;100.00;-17125.47;5012047;28;20080;-77
2023/09/02 07:06:37;;;;;;;45.88;22.27;;;;;;;-148.88;100.00;-17125.47;5013145;28;20366;-76
2023/09/02 07:09:02;;;;;;;46.08;21.35;;;;;;;-148.88;100.00;-17125.47;5013026;28;20026;-77
2023/09/02 07:11:28;;;;;;;43.55;21.27;;;;;;;-148.88;100.00;-17125.47;5013112;28;20097;-77
2023/09/02 07:13:53;;;;;;;42.38;21.23;;;;;;;-148.88;100.00;-17125.47;5013881;28;20022;-77
2023/09/02 07:16:19;;;;;;;43.67;21.08;;;;;;;-148.88;100.00;-17125.47;5012117;28;20017;-77
2023/09/02 07:18:45;;;;;;;40.22;20.83;;;;;;;-148.88;100.00;-17125.47;5012116;28;20014;-77
2023/09/02 07:21:10;;;;;;;39.63;20.17;;;;;;;-148.88;100.00;-17125.47;5013349;28;20540;-77
2023/09/02 07:23:36;;;;;;;39.80;20.95;;;;;;;-148.88;100.00;-17125.47;5013463;28;20396;-76
2023/09/02 07:26:01;;;;;;;41.33;21.35;;;;;;;-148.88;100.00;-17125.47;5013118;28;20028;-77
2023/09/02 07:28:28;;;;;;;43.65;21.48;;;;;;;-148.88;100.00;-17125.47;5011484;28;20488;-77
2023/09/02 07:30:58;;;;;;;39.65;20.80;;;;;;;-148.88;100.00;-17125.47;5012770;28;20061;-77
2023/09/02 07:33:23;;;;;;;44.85;21.13;;;;;;;-148.88;100.00;-17125.47;5011608;28;20080;-77
2023/09/02 07:35:49;;;;;;;42.88;21.40;;;;;;;-148.88;100.00;-17125.47;5013025;28;20022;-76
2023/09/02 07:38:14;;;;;;;45.38;22.67;;;;;;;-148.88;100.00;-17125.47;5012815;28;20029;-77
2023/09/02 07:40:41;;;;;;;42.28;22.90;;;;;;;-148.88;100.00;-17125.47;5012925;28;20022;-77
2023/09/02 07:43:06;;;;;;;44.58;22.17;;;;;;;-148.88;100.00;-17125.47;5012991;28;20030;-77
2023/09/02 07:45:32;;;;;;;44.70;22.95;;;;;;;-148.88;100.00;-17125.47;5012785;28;20030;-77
2023/09/02 07:47:57;;;;;;;42.53;22.77;;;;;;;-148.88;100.00;-17125.47;5012828;28;20018;-77
2023/09/02 07:50:22;;;;;;;44.38;22.15;;;;;;;-148.88;100.00;-17125.47;5011311;28;20022;-77
2023/09/02 07:52:48;;;;;;;42.85;22.60;;;;;;;-148.88;100.00;-17125.47;5012926;28;20028;-77
2023/09/02 07:55:14;;;;;;;46.00;22.98;;;;;;;-148.88;100.00;-17125.47;5011942;28;20029;-77
2023/09/02 07:57:39;;;;;;;49.17;23.63;;;;;;;-148.88;100.00;-17125.47;5016475;28;20369;-77
2023/09/02 08:00:05;;;;;;;45.90;24.58;;;;;;;-148.88;100.00;-17125.47;5015374;28;20020;-77
2023/09/02 08:02:31;;;;;;;44.13;22.65;;;;;;;-148.88;100.00;-17125.47;5016297;28;20443;-76
2023/09/02 08:04:56;;;;;;;40.47;21.98;;;;;;;-148.88;100.00;-17125.47;5015066;28;20029;-77
2023/09/02 08:07:22;;;;;;;41.35;22.80;;;;;;;-148.88;100.00;-17125.47;5016400;28;20044;-77
2023/09/02 08:09:48;;;;;;;46.15;23.55;;;;;;;-148.88;100.00;-17125.47;5016441;28;20026;-77
2023/09/02 08:12:14;;;;;;;42.55;22.90;;;;;;;-148.88;100.00;-17125.47;5015156;28;20026;-77
2023/09/02 08:14:39;;;;;;;38.45;20.85;;;;;;;-148.88;100.00;-17125.47;5016679;28;20493;-77
2023/09/02 08:17:04;;;;;;;40.05;21.52;;;;;;;-148.88;100.00;-17125.47;5015934;28;20030;-77
2023/09/02 08:19:31;;;;;;;35.42;19.88;;;;;;;-148.88;100.00;-17125.47;5016737;28;20380;-77
2023/09/02 08:21:56;;;;;;;34.30;19.95;;;;;;;-148.88;100.00;-17125.47;5015771;28;20075;-78
2023/09/02 08:24:22;;;;;;;37.63;20.90;;;;;;;-148.88;100.00;-17125.47;5016429;28;20450;-78
2023/09/02 08:26:47;;;;;;;33.92;19.85;;;;;;;-148.88;100.00;-17125.47;5019019;28;20041;-79
2023/09/02 08:29:12;;;;;;;39.80;19.52;;;;;;;-148.88;100.00;-17125.47;5017212;28;20026;-79
2023/09/02 08:31:40;;;;;;;31.40;18.98;;;;;;;-148.88;100.00;-17125.47;5016175;28;20041;-77
2023/09/02 08:34:05;;;;;;;34.03;19.55;;;;;;;-148.88;100.00;-17125.47;5015589;28;20411;-77
2023/09/02 08:36:30;;;;;;;36.20;19.92;;;;;;;-148.88;100.00;-17125.47;5018796;28;20021;-77
2023/09/02 08:38:56;;;;;;;30.42;17.20;;;;;;;-148.88;100.00;-17125.47;5015944;28;20025;-77
2023/09/02 08:41:34;;;;;;;29.10;17.83;;;;;;;-148.88;100.00;-17125.47;5016408;28;20032;-78
2023/09/02 08:44:03;;;;;;;31.15;17.88;;;;;;;-148.88;100.00;-17125.47;5014727;28;20029;-77
2023/09/02 08:46:31;;;;;;;29.33;18.05;;;;;;;-148.88;100.00;-17125.47;5016126;28;20029;-77
2023/09/02 08:48:57;;;;;;;30.67;17.95;;;;;;;-148.88;100.00;-17125.47;5015808;28;20022;-77
2023/09/02 08:51:25;;;;;;;26.90;16.88;;;;;;;-148.88;100.00;-17125.47;5016019;28;20083;-77
2023/09/02 08:53:53;;;;;;;28.00;16.90;;;;;;;-148.88;100.00;-17125.47;5015925;28;20022;-77
2023/09/02 08:56:18;;;;;;;29.10;16.73;;;;;;;-148.88;100.00;-17125.47;5015913;28;20033;-78
2023/09/02 08:58:45;;;;;;;27.80;16.02;;;;;;;-148.88;100.00;-17125.47;5014478;28;20393;-77
2023/09/02 09:01:16;;;;;;;25.50;15.88;;;;;;;-148.88;100.00;-17125.47;5015753;28;20378;-77
2023/09/02 09:03:46;;;;;;;26.17;16.33;;;;;;;-148.88;100.00;-17125.47;5015735;28;20551;-77
2023/09/02 09:06:12;;;;;;;26.10;16.60;;;;;;;-148.88;100.00;-17125.47;5014248;28;20083;-77
2023/09/02 09:08:39;;;;;;;26.05;15.93;;;;;;;-148.88;100.00;-17125.47;5014557;28;20108;-78
2023/09/02 09:11:06;;;;;;;24.88;15.30;;;;;;;-148.88;100.00;-17125.47;5014632;28;20500;-77
2023/09/02 09:13:35;;;;;;;24.35;15.00;;;;;;;-148.88;100.00;-17125.47;5016132;28;20030;-77
2023/09/02 09:16:03;;;;;;;25.90;15.98;;;;;;;-148.88;100.00;-17125.47;5015520;28;20021;-77
2023/09/02 09:18:28;;;;;;;25.67;15.65;;;;;;;-148.88;100.00;-17125.47;5015585;28;20026;-77
2023/09/02 09:20:53;;;;;;;25.77;16.00;;;;;;;-148.88;100.00;-17125.47;5015409;28;20365;-77
2023/09/02 09:23:19;;;;;;;22.58;14.80;;;;;;;-148.88;100.00;-17125.47;5015323;28;20373;-77
2023/09/02 09:25:49;;;;;;;23.85;15.45;;;;;;;-148.88;100.00;-17125.47;5015513;28;20039;-77
2023/09/02 09:28:15;;;;;;;21.33;14.77;;;;;;;-148.88;100.00;-17125.47;5014224;28;20105;-77
2023/09/02 09:30:40;;;;;;;22.58;15.10;;;;;;;-148.88;100.00;-17125.47;5013923;28;20183;-77
2023/09/02 09:33:06;;;;;;;23.13;14.73;;;;;;;-148.88;100.00;-17125.47;5015035;28;20034;-77
2023/09/02 09:35:32;;;;;;;21.60;14.75;;;;;;;-148.88;100.00;-17125.47;5015131;28;20032;-78
2023/09/02 09:37:59;;;;;;;21.70;14.57;;;;;;;-148.88;100.00;-17125.47;5014957;28;20156;-77
2023/09/02 09:40:30;;;;;;;19.70;13.88;;;;;;;-148.88;100.00;-17125.47;5015063;28;20381;-77
2023/09/02 09:42:56;;;;;;;20.25;14.05;;;;;;;-148.88;100.00;-17125.47;5015113;28;20036;-77
2023/09/02 09:45:21;;;;;;;19.17;13.48;;;;;;;-148.88;100.00;-17125.47;5015067;28;20034;-77
2023/09/02 09:47:46;;;;;;;19.90;14.18;;;;;;;-148.88;100.00;-17125.47;5014933;28;20539;-77
2023/09/02 09:50:14;;;;;;;18.08;12.82;;;;;;;-148.88;100.00;-17125.47;5013589;28;20050;-77
2023/09/02 09:52:39;;;;;;;17.67;13.18;;;;;;;-148.88;100.00;-17125.47;5013505;28;20377;-77
2023/09/02 09:55:05;;;;;;;20.10;13.77;;;;;;;-148.88;100.00;-17125.47;5014706;28;20029;-77
2023/09/02 09:57:30;;;;;;;18.40;12.63;;;;;;;-148.88;100.00;-17125.47;5013311;28;20111;-77
2023/09/02 09:59:57;;;;;;;19.48;13.73;;;;;;;-148.88;100.00;-17125.47;5013403;28;20400;-77
2023/09/02 10:02:23;;;;;;;18.20;13.75;;;;;;;-148.88;100.00;-17125.47;5014562;28;20021;-77
2023/09/02 10:04:56;;;;;;;19.77;13.65;;;;;;;-148.88;100.00;-17125.47;5014672;28;20033;-78
2023/09/02 10:07:32;;;;;;;20.23;13.43;;;;;;;-148.88;100.00;-17125.47;5014367;28;20026;-77
2023/09/02 10:10:03;;;;;;;20.33;13.23;;;;;;;-148.88;100.00;-17125.47;5014448;28;20519;-77
2023/09/02 10:12:34;;;;;;;18.15;13.55;;;;;;;-148.88;100.00;-17125.47;5014406;28;20053;-77
2023/09/02 10:15:01;;;;;;;15.18;11.60;;;;;;;-148.88;100.00;-17125.47;5014420;28;20504;-77
2023/09/02 10:17:27;;;;;;;18.35;11.75;;;;;;;-148.88;100.00;-17125.47;5014305;28;20381;-77
2023/09/02 10:19:53;;;;;;;16.70;12.63;;;;;;;-148.88;100.00;-17125.47;5013991;28;20370;-77
2023/09/02 10:22:21;;;;;;;18.63;13.15;;;;;;;-148.88;100.00;-17125.47;5014513;28;20033;-78
2023/09/02 10:24:49;;;;;;;18.27;13.38;;;;;;;-148.88;100.00;-17125.47;5014521;28;20061;-77
2023/09/02 10:27:18;;;;;;;17.63;13.40;;;;;;;-148.88;100.00;-17125.47;5013019;28;20033;-77
2023/09/02 10:29:46;;;;;;;16.60;11.77;;;;;;;-148.88;100.00;-17125.47;5012803;28;20018;-77
2023/09/02 10:32:12;;;;;;;17.42;12.57;;;;;;;-148.88;100.00;-17125.47;5066679;23;20046;-79
2023/09/02 10:35:02;;;;;;;17.60;12.98;;;;;;;-148.88;100.00;-17125.47;4994541;28;20037;-77
2023/09/02 10:37:41;;;;;;;16.15;12.27;;;;;;;-148.88;100.00;-17125.47;4993998;28;20026;-77
2023/09/02 10:40:11;;;;;;;17.13;12.55;;;;;;;-148.88;100.00;-17125.47;4995966;28;20094;-77
2023/09/02 10:42:37;;;;;;;15.02;12.40;;;;;;;-148.88;100.00;-17125.47;4994405;28;20028;-77
2023/09/02 10:45:04;;;;;;;16.60;12.30;;;;;;;-148.88;100.00;-17125.47;4994275;28;20033;-77